Kingman, AZ

5:21 PM MST on March 01, 2015 (GMT -0700)
Southeast Kingman | Change Station
CLOSE
Current Station
Personal Weather Station
Location: Kingman, AZ
Elevation: 3584 ft
Nearby Weather Stations

Elev 3584 ft 35.20 °N, 114.00 °W | Updated 1 minute ago

Rain
Rain
42.4 °F
Feels Like 38 °F
N
7.0
Wind Variable Wind from NNW
Gusts 7.0 mph

Today
High -- | Low -- °F
--% Chance of Precip.
Yesterday
High -- | Low -- °F
Precip. -- in
7:05 AM 6:31 PM
Waxing Gibbous, 88% visible
Pressure 29.85 in
Visibility 10.0 miles
Clouds Overcast 4400 ft
Windchill 38 °F
Dew Point 39 °F
Humidity 88%
Rainfall 0.20 in
Snow Depth Not available.
UV 0 out of 12
Pollen 7.60 out of 12
Air Quality Not available.
Flu Activity Not available.
METAR KIGM 012351Z AUTO 02005KT 10SM -RA OVC044 07/04 A2994 RMK AO2 SLP107 P0001 60018 T00670039 10117 20067 58010 TSNO

More Conditions Fewer Conditions

Pressure 29.85 in
Visibility 10.0 miles
Clouds Overcast 4400 ft
Windchill 38 °F
Dew Point 39 °F
Humidity 88%
Rainfall 0.20 in
Snow Depth Not available.
UV 0 out of 12
Pollen 7.60 out of 12
Air Quality Not available.
Flu Activity Not available.
METAR KIGM 012351Z AUTO 02005KT 10SM -RA OVC044 07/04 A2994 RMK AO2 SLP107 P0001 60018 T00670039 10117 20067 58010 TSNO

More Conditions Fewer Conditions

10-Day Weather Forecast

Almanac

Astronomy

Mar. 01, 2015 Rise Set
Actual Time
Civil Twilight
Nautical Twilight
Astronomical Twilight
Moon
Length of Visible Light
Length of Day
Tomorrow will be .
, % of the Moon is Illuminated

Today's Extremes

State Highs State Lows

Community

WunderPhotos

Upload Photos

1,801,647 photos uploaded!

WunderBlogs® & News

Nearby

Air Quality

  Air Quality AQ Index Pollutant
Not available.

Snow Depth

Station Depth Elevation

Earthquake Activity

City Distance Mag. Time & Date
Minimum magnitude displayed is 2.5.

Coastal Water Temperatures

Place Temperature

Nearby Weather Stations